Time;durP1;ratioP1;P1;durP2;ratioP2;P2;SDS_P1;SDS_P2;PMS_P1;PMS_P2;Temp;Humidity;BMP_temperature;BMP_pressure;BME280_temperature;BME280_humidity;BME280_pressure;Samples;Min_cycle;Max_cycle;Signal;HPM_P1;HPM_P2
2022/10/18 00:00:47;;;;;;;15.80;11.10;;;;;;;9.71;58.06;102063.14;1758947;81;21024;-74
2022/10/18 00:03:14;;;;;;;19.12;10.75;;;;;;;9.71;57.98;102061.28;1753448;81;21671;-76
2022/10/18 00:05:42;;;;;;;16.48;10.80;;;;;;;9.69;57.92;102062.00;1758846;81;21244;-75
2022/10/18 00:08:08;;;;;;;16.32;11.00;;;;;;;9.67;57.98;102061.91;1753297;81;20999;-75
2022/10/18 00:10:35;;;;;;;17.48;11.20;;;;;;;9.66;58.17;102065.61;1758723;81;20955;-76
2022/10/18 00:13:03;;;;;;;16.00;10.93;;;;;;;9.65;58.35;102061.32;1753407;80;21502;-76
2022/10/18 00:15:30;;;;;;;18.05;11.48;;;;;;;9.66;58.49;102060.28;1758874;81;20964;-75
2022/10/18 00:17:57;;;;;;;19.20;11.25;;;;;;;9.64;58.51;102053.84;1753543;81;21487;-75
2022/10/18 00:20:25;;;;;;;19.12;11.10;;;;;;;9.66;58.50;102046.94;1758605;81;21101;-75
2022/10/18 00:22:52;;;;;;;16.97;11.57;;;;;;;9.67;58.44;102037.89;1753459;81;21062;-75
2022/10/18 00:25:18;;;;;;;16.05;10.45;;;;;;;9.68;58.36;102039.55;1758635;81;21055;-76
2022/10/18 00:27:45;;;;;;;18.55;11.25;;;;;;;9.68;58.33;102036.36;1754109;81;21070;-75
2022/10/18 00:30:13;;;;;;;17.10;11.50;;;;;;;9.68;58.31;102038.22;1752759;80;21166;-75
2022/10/18 00:32:41;;;;;;;19.00;11.50;;;;;;;9.66;58.27;102030.93;1752718;81;21022;-74
2022/10/18 00:35:08;;;;;;;19.27;11.45;;;;;;;9.63;58.29;102029.50;1762155;81;20959;-75
2022/10/18 00:37:35;;;;;;;17.17;11.60;;;;;;;9.62;58.30;102036.69;1790238;80;21055;-75
2022/10/18 00:40:03;;;;;;;18.23;11.55;;;;;;;9.59;58.30;102037.12;1789892;80;21003;-75
2022/10/18 00:42:33;;;;;;;15.40;10.70;;;;;;;9.57;58.24;102033.84;1781049;80;21086;-75
2022/10/18 00:45:22;;;;;;;16.35;10.53;;;;;;;9.53;58.25;102026.48;1758552;81;21442;-75
2022/10/18 00:47:57;;;;;;;18.55;10.98;;;;;;;9.49;58.37;102025.28;1753404;80;21023;-76
2022/10/18 00:50:24;;;;;;;18.73;11.93;;;;;;;9.47;58.45;102026.00;1758501;81;21014;-75
2022/10/18 00:52:57;;;;;;;18.92;12.05;;;;;;;9.45;58.49;102022.23;1753471;80;21007;-76
2022/10/18 00:55:25;;;;;;;19.95;11.08;;;;;;;9.42;58.52;102016.50;1758809;81;21144;-75
2022/10/18 00:57:52;;;;;;;21.20;12.37;;;;;;;9.39;58.49;102019.89;1753142;81;20999;-76
2022/10/18 01:00:20;;;;;;;19.95;11.65;;;;;;;9.36;58.51;102021.64;1758456;81;21122;-75
2022/10/18 01:02:46;;;;;;;17.05;11.25;;;;;;;9.33;58.55;102021.25;1753336;81;20972;-75
2022/10/18 01:05:15;;;;;;;16.67;11.00;;;;;;;9.32;58.63;102024.97;1758622;81;21407;-76
2022/10/18 01:08:01;;;;;;;16.97;11.08;;;;;;;9.29;58.70;102016.05;1753247;80;21110;-75
2022/10/18 01:11:08;;;;;;;16.40;10.63;;;;;;;9.26;58.81;102010.63;1758284;81;21446;-75
2022/10/18 01:14:09;;;;;;;19.95;11.43;;;;;;;9.25;58.92;102008.19;1753141;81;20987;-75
2022/10/18 01:16:41;;;;;;;;;;;;;;;9.23;58.97;102006.23;1750508;81;21030;-74
2022/10/18 01:19:39;;;;;;;15.30;10.90;;;;;;;9.20;59.02;102015.98;1721527;82;20233;-75
2022/10/18 01:22:34;;;;;;;16.23;10.63;;;;;;;9.15;59.11;102011.30;1752432;81;21231;-75
2022/10/18 01:25:30;;;;;;;18.73;11.00;;;;;;;9.13;59.18;102012.83;1758350;81;21038;-74
2022/10/18 01:28:05;;;;;;;15.10;10.65;;;;;;;9.12;59.34;101996.55;1761027;79;20937;-75
2022/10/18 01:30:58;;;;;;;17.48;11.45;;;;;;;9.12;59.46;102001.06;1752756;80;21081;-74
2022/10/18 01:33:48;;;;;;;16.02;10.72;;;;;;;9.09;59.47;101998.30;1760604;81;21036;-74
2022/10/18 01:36:25;;;;;;;17.80;11.65;;;;;;;9.07;59.46;101995.01;1753519;81;21111;-74
2022/10/18 01:38:54;;;;;;;16.12;10.03;;;;;;;9.05;59.47;101994.91;1753150;81;21420;-74
2022/10/18 01:41:22;;;;;;;16.37;10.90;;;;;;;9.02;59.50;101989.52;1758829;81;21517;-75
2022/10/18 01:43:53;;;;;;;17.80;11.53;;;;;;;8.99;59.54;101980.61;1752989;81;21015;-75
2022/10/18 01:46:22;;;;;;;17.90;11.20;;;;;;;8.96;59.62;101982.36;1758689;81;21077;-74
2022/10/18 01:48:49;;;;;;;15.80;10.58;;;;;;;8.95;59.70;101985.22;1753109;80;21505;-75
2022/10/18 01:51:25;;;;;;;16.25;10.23;;;;;;;8.92;59.72;101975.83;1758519;81;21055;-75
2022/10/18 01:53:52;;;;;;;20.62;10.28;;;;;;;8.89;59.73;101983.72;1752995;80;21011;-74
2022/10/18 01:56:53;;;;;;;15.72;10.98;;;;;;;8.83;59.84;101982.41;1758973;81;20982;-75
2022/10/18 01:59:44;;;;;;;19.17;11.95;;;;;;;8.78;60.04;101980.36;1753524;81;21702;-76
2022/10/18 02:02:39;;;;;;;17.77;11.50;;;;;;;8.74;60.20;101977.81;1758830;81;21980;-76
2022/10/18 02:05:17;;;;;;;15.40;10.90;;;;;;;8.73;60.39;101978.85;1720191;82;20960;-74
2022/10/18 02:08:08;;;;;;;20.20;11.63;;;;;;;8.75;60.49;101969.30;1727972;83;21055;-74
2022/10/18 02:10:45;;;;;;;18.17;11.10;;;;;;;8.76;60.48;101966.96;1727896;83;21044;-74
2022/10/18 02:13:16;;;;;;;18.77;11.15;;;;;;;8.77;60.48;101972.06;1727823;82;21543;-75
2022/10/18 02:15:46;;;;;;;18.10;11.48;;;;;;;8.75;60.43;101962.13;1728277;82;27484;-75
2022/10/18 02:18:18;;;;;;;17.20;10.78;;;;;;;8.75;60.40;101951.98;1727986;83;20949;-75
2022/10/18 02:20:44;;;;;;;16.77;10.32;;;;;;;8.73;60.41;101946.88;1728249;82;21059;-75
2022/10/18 02:23:13;;;;;;;13.68;10.65;;;;;;;8.71;60.43;101938.27;1727756;83;21043;-75
2022/10/18 02:25:39;;;;;;;18.30;11.60;;;;;;;8.70;60.45;101939.31;1727757;83;21405;-75
2022/10/18 02:28:06;;;;;;;17.90;11.68;;;;;;;8.68;60.47;101936.84;1727800;83;21414;-75
2022/10/18 02:30:38;;;;;;;18.67;11.93;;;;;;;8.65;60.48;101928.45;1766089;79;21476;-75
2022/10/18 02:33:09;;;;;;;;;;;;;;;8.64;60.52;101924.16;1765874;81;21174;-75
2022/10/18 02:35:42;;;;;;;18.87;10.98;;;;;;;8.60;60.53;101929.09;1719848;83;20470;-75
2022/10/18 02:38:09;;;;;;;20.23;11.55;;;;;;;8.57;60.59;101927.38;1720107;83;21494;-75
2022/10/18 02:40:36;;;;;;;19.48;11.00;;;;;;;8.48;60.64;101928.10;1719814;83;21490;-75
2022/10/18 02:43:04;;;;;;;15.18;10.15;;;;;;;8.41;60.77;101929.97;1719694;83;21035;-75
2022/10/18 02:45:31;;;;;;;17.87;10.98;;;;;;;8.31;60.86;101929.03;1699688;83;21007;-75
2022/10/18 02:47:57;;;;;;;19.92;11.48;;;;;;;8.21;61.06;101932.64;1719887;83;20976;-75
2022/10/18 02:50:24;;;;;;;14.87;10.15;;;;;;;8.20;61.24;101929.69;1719647;83;21126;-75
2022/10/18 02:52:51;;;;;;;16.87;10.15;;;;;;;8.20;61.37;101924.36;1719744;83;23122;-75
2022/10/18 02:55:18;;;;;;;16.97;10.30;;;;;;;8.21;61.45;101914.83;1719682;83;21044;-75
2022/10/18 02:57:45;;;;;;;15.18;10.43;;;;;;;8.23;61.49;101910.12;1719884;83;21005;-75
2022/10/18 03:00:14;;;;;;;17.50;11.00;;;;;;;8.28;61.48;101914.00;1719884;83;20995;-75
2022/10/18 03:02:40;;;;;;;17.35;11.75;;;;;;;8.28;61.47;101910.81;1719852;83;21514;-75
2022/10/18 03:05:08;;;;;;;18.23;11.50;;;;;;;8.29;61.51;101916.47;1719653;82;21095;-75
2022/10/18 03:07:36;;;;;;;16.50;11.20;;;;;;;8.32;61.51;101912.55;1719999;83;21443;-74
2022/10/18 03:10:03;;;;;;;18.20;11.33;;;;;;;8.32;61.51;101911.22;1719807;82;20989;-74
2022/10/18 03:12:30;;;;;;;16.05;11.08;;;;;;;8.32;61.50;101912.03;1719991;83;21040;-75
2022/10/18 03:14:58;;;;;;;21.15;11.45;;;;;;;8.32;61.60;101910.70;1719419;83;20961;-74
2022/10/18 03:17:24;;;;;;;17.45;11.22;;;;;;;8.33;61.70;101912.35;1719804;83;21117;-74
2022/10/18 03:19:51;;;;;;;15.70;10.80;;;;;;;8.33;61.73;101912.88;1719614;82;20941;-75
2022/10/18 03:22:18;;;;;;;15.88;11.25;;;;;;;8.35;61.71;101906.29;1719917;83;20999;-74
2022/10/18 03:24:45;;;;;;;16.55;10.98;;;;;;;8.36;61.71;101903.14;1719525;83;21036;-75
2022/10/18 03:27:12;;;;;;;17.00;11.22;;;;;;;8.38;61.67;101902.43;1719987;83;21004;-76
2022/10/18 03:29:39;;;;;;;16.45;11.03;;;;;;;8.37;61.54;101902.91;1719670;83;21144;-76
2022/10/18 03:32:06;;;;;;;16.50;10.32;;;;;;;8.33;61.47;101896.38;1719670;81;21064;-74
2022/10/18 03:34:34;;;;;;;15.18;10.30;;;;;;;8.30;61.46;101886.67;1719734;83;21558;-75
2022/10/18 03:37:00;;;;;;;18.48;11.05;;;;;;;8.26;61.44;101882.28;1720024;82;21503;-75
2022/10/18 03:39:28;;;;;;;16.07;11.33;;;;;;;8.22;61.42;101885.84;1719866;82;21036;-75
2022/10/18 03:41:54;;;;;;;15.63;10.80;;;;;;;8.18;61.43;101880.64;1719888;82;21143;-74
2022/10/18 03:44:21;;;;;;;17.98;12.00;;;;;;;8.16;61.43;101885.37;1719571;82;21040;-75
2022/10/18 03:46:47;;;;;;;16.77;10.72;;;;;;;8.14;61.46;101883.94;1719950;83;21004;-75
2022/10/18 03:49:15;;;;;;;17.20;10.93;;;;;;;8.14;61.48;101887.92;1719748;83;21055;-74
2022/10/18 03:51:42;;;;;;;17.30;10.95;;;;;;;8.11;61.49;101885.16;1720277;83;21072;-75
2022/10/18 03:54:11;;;;;;;14.25;10.25;;;;;;;8.09;61.52;101881.88;1720121;83;21071;-75
2022/10/18 03:56:37;;;;;;;14.65;10.25;;;;;;;8.10;61.51;101881.39;1720408;83;20956;-75
2022/10/18 03:59:04;;;;;;;18.52;10.35;;;;;;;8.06;61.54;101884.14;1720012;83;20968;-74
2022/10/18 04:01:32;;;;;;;18.12;10.58;;;;;;;8.03;61.60;101881.41;1719928;83;20967;-75
2022/10/18 04:03:58;;;;;;;18.25;11.12;;;;;;;8.01;61.68;101875.46;1719983;83;21518;-75
2022/10/18 04:06:27;;;;;;;16.95;9.83;;;;;;;8.03;61.68;101873.91;1719924;83;21691;-75
2022/10/18 04:08:54;;;;;;;14.90;10.13;;;;;;;8.05;61.70;101874.53;1719636;83;21478;-75
2022/10/18 04:11:21;;;;;;;16.32;9.88;;;;;;;8.07;61.77;101870.64;1719884;83;21201;-75
2022/10/18 04:13:49;;;;;;;18.12;10.82;;;;;;;8.12;61.79;101872.15;1719556;83;20988;-76
2022/10/18 04:16:17;;;;;;;17.15;11.03;;;;;;;8.19;61.76;101870.80;1719941;83;21008;-76
2022/10/18 04:18:43;;;;;;;18.98;11.00;;;;;;;8.22;61.71;101865.88;1720012;83;21134;-76
2022/10/18 04:21:10;;;;;;;17.00;11.00;;;;;;;8.26;61.64;101863.64;1719724;83;21092;-75
2022/10/18 04:23:38;;;;;;;15.55;10.32;;;;;;;8.29;61.53;101854.40;1719549;83;21046;-74
2022/10/18 04:26:06;;;;;;;14.78;10.10;;;;;;;8.31;61.40;101852.36;1719905;82;21001;-74
2022/10/18 04:28:34;;;;;;;15.70;10.43;;;;;;;8.32;61.32;101854.80;1719791;83;21047;-75
2022/10/18 04:31:01;;;;;;;14.65;10.32;;;;;;;8.32;61.31;101848.14;1719888;82;21354;-74
2022/10/18 04:33:29;;;;;;;24.65;11.50;;;;;;;8.35;61.28;101850.90;1743131;81;20991;-76
2022/10/18 04:35:56;;;;;;;17.60;10.85;;;;;;;8.38;61.25;101843.86;1757239;81;21020;-74
2022/10/18 04:38:22;;;;;;;15.40;10.60;;;;;;;8.44;61.17;101844.34;1790009;80;20983;-75
2022/10/18 04:40:49;;;;;;;15.30;10.50;;;;;;;8.50;61.07;101846.17;1775672;80;21543;-75
2022/10/18 04:43:16;;;;;;;15.48;10.53;;;;;;;8.56;60.93;101857.83;1753338;81;21548;-76
2022/10/18 04:45:45;;;;;;;16.07;10.55;;;;;;;8.53;61.04;101863.06;1753400;81;21001;-75
2022/10/18 04:48:12;;;;;;;15.55;10.23;;;;;;;8.46;61.21;101848.96;1753736;81;21020;-75
2022/10/18 04:50:39;;;;;;;15.98;10.43;;;;;;;8.47;61.39;101847.11;1753271;81;21463;-75
2022/10/18 04:53:07;;;;;;;14.95;9.98;;;;;;;8.51;61.45;101846.47;1747946;81;21438;-75
2022/10/18 04:55:33;;;;;;;16.35;10.98;;;;;;;8.56;61.46;101841.86;1753401;81;21244;-76
2022/10/18 04:58:01;;;;;;;16.17;10.88;;;;;;;8.63;61.42;101834.65;1758912;81;21011;-75
2022/10/18 05:00:29;;;;;;;16.57;10.63;;;;;;;8.69;61.33;101841.27;1754016;81;21015;-75
2022/10/18 05:02:57;;;;;;;16.20;10.58;;;;;;;8.74;61.25;101839.81;1753684;81;21428;-75
2022/10/18 05:05:25;;;;;;;14.73;10.08;;;;;;;8.81;61.13;101836.07;1667983;85;79845;-72
2022/10/18 05:07:53;;;;;;;16.57;10.03;;;;;;;8.87;61.00;101833.08;1671421;85;21931;-72
2022/10/18 05:10:19;;;;;;;18.05;10.70;;;;;;;8.98;60.85;101831.05;1671428;85;21145;-72
2022/10/18 05:12:46;;;;;;;17.40;9.63;;;;;;;9.10;60.68;101826.67;1671409;85;21026;-72
2022/10/18 05:15:13;;;;;;;18.07;9.85;;;;;;;9.22;60.51;101825.98;1671213;85;21534;-71
2022/10/18 05:17:42;;;;;;;17.17;10.10;;;;;;;9.32;60.28;101821.80;1671282;85;20959;-71
2022/10/18 05:20:10;;;;;;;13.13;9.30;;;;;;;9.45;60.01;101817.40;1671210;85;21034;-71
2022/10/18 05:22:38;;;;;;;15.78;10.30;;;;;;;9.56;59.79;101817.48;1671345;85;20891;-71
2022/10/18 05:25:07;;;;;;;17.82;10.50;;;;;;;9.67;59.67;101820.46;1671191;85;21031;-71
2022/10/18 05:27:34;;;;;;;20.88;10.88;;;;;;;9.79;59.54;101821.38;1671393;85;21103;-71
2022/10/18 05:30:01;;;;;;;13.43;9.80;;;;;;;9.90;59.36;101821.16;1671264;85;21485;-72
2022/10/18 05:32:29;;;;;;;14.78;10.18;;;;;;;10.01;59.18;101815.92;1671437;84;21093;-72
2022/10/18 05:34:57;;;;;;;15.60;10.00;;;;;;;10.15;59.01;101813.91;1671232;85;20967;-72
2022/10/18 05:37:23;;;;;;;14.60;9.20;;;;;;;10.28;58.76;101816.98;1671623;85;21058;-71
2022/10/18 05:39:50;;;;;;;15.70;9.40;;;;;;;10.41;58.31;101825.35;1671150;85;21477;-71
2022/10/18 05:42:16;;;;;;;15.50;9.38;;;;;;;10.52;57.85;101814.70;1671598;85;21521;-71
2022/10/18 05:44:43;;;;;;;11.90;8.33;;;;;;;10.65;57.48;101819.59;1671284;85;21225;-71
2022/10/18 05:47:10;;;;;;;14.80;9.00;;;;;;;10.80;57.10;101813.32;1671419;85;20963;-71
2022/10/18 05:49:37;;;;;;;13.75;8.98;;;;;;;10.94;56.78;101817.42;1671291;85;21051;-71
2022/10/18 05:52:04;;;;;;;13.80;9.08;;;;;;;11.12;56.49;101817.05;1671502;85;21047;-71
2022/10/18 05:54:31;;;;;;;11.78;8.68;;;;;;;11.26;56.13;101811.80;1671364;85;21140;-71
2022/10/18 05:56:59;;;;;;;13.48;8.45;;;;;;;11.42;55.68;101816.48;1671590;85;21081;-72
2022/10/18 05:59:26;;;;;;;12.55;7.97;;;;;;;11.58;55.21;101812.80;1671136;85;21508;-70
2022/10/18 06:01:52;;;;;;;11.63;7.42;;;;;;;11.71;54.50;101812.06;1671749;85;21026;-70
2022/10/18 06:04:19;;;;;;;14.63;7.93;;;;;;;11.84;54.15;101808.34;1554422;85;10000429;-72
2022/10/18 06:06:48;;;;;;;13.20;7.87;;;;;;;11.97;53.53;101813.44;1658824;85;20995;-71
2022/10/18 06:09:14;;;;;;;14.47;8.25;;;;;;;12.10;52.93;101804.87;1644223;87;21137;-71
2022/10/18 06:11:41;;;;;;;13.93;8.05;;;;;;;12.22;52.49;101804.85;1644595;87;21089;-72
2022/10/18 06:14:09;;;;;;;11.08;7.53;;;;;;;12.36;51.99;101809.69;1644072;87;21021;-72
2022/10/18 06:16:37;;;;;;;12.58;7.58;;;;;;;12.51;51.46;101813.73;1644330;87;21022;-71
2022/10/18 06:19:03;;;;;;;10.95;7.78;;;;;;;12.61;50.88;101806.69;1644007;87;21222;-71
2022/10/18 06:21:32;;;;;;;10.28;7.08;;;;;;;12.75;50.54;101812.56;1654428;85;21085;-71
2022/10/18 06:36:35;;;;;;;12.40;6.90;;;;;;;13.89;47.30;101811.45;1809508;79;22814;-72
2022/10/18 06:39:03;;;;;;;12.03;7.77;;;;;;;13.98;46.39;101810.47;1805286;79;21078;-73
2022/10/18 06:41:29;;;;;;;12.57;7.80;;;;;;;14.05;46.28;101817.84;1798476;79;21315;-72
2022/10/18 06:44:02;;;;;;;10.23;7.30;;;;;;;14.12;46.20;101814.43;1776389;79;21869;-71
2022/10/18 06:46:26;;;;;;;8.77;6.93;;;;;;;14.22;45.92;101808.38;1773634;80;21325;-73
2022/10/18 06:48:52;;;;;;;12.03;7.70;;;;;;;14.30;45.50;101810.06;1774573;80;21695;-75
2022/10/18 06:51:19;;;;;;;11.37;7.13;;;;;;;14.38;45.27;101807.48;1775170;80;21298;-73
2022/10/18 06:53:46;;;;;;;11.97;7.30;;;;;;;14.47;45.22;101807.83;1775440;80;21243;-72
2022/10/18 06:56:14;;;;;;;11.43;6.90;;;;;;;14.57;44.91;101803.94;1774698;80;21706;-72
2022/10/18 06:58:41;;;;;;;11.50;6.93;;;;;;;14.68;44.90;101800.30;1784946;79;21260;-72
2022/10/18 07:01:10;;;;;;;11.13;7.53;;;;;;;14.78;44.59;101793.67;1806835;79;21147;-73
2022/10/18 07:03:38;;;;;;;10.80;7.60;;;;;;;14.90;44.50;101784.62;1807557;79;21398;-73
2022/10/18 07:06:06;;;;;;;11.13;6.67;;;;;;;15.04;44.37;101785.84;1806673;79;21250;-73
2022/10/18 07:08:32;;;;;;;11.37;6.57;;;;;;;15.14;44.10;101773.80;1807032;79;21282;-73
2022/10/18 07:11:00;;;;;;;11.30;6.77;;;;;;;15.25;43.62;101770.64;1806815;79;21283;-74
2022/10/18 07:13:31;;;;;;;10.03;6.60;;;;;;;15.35;42.88;101767.22;1807522;79;21258;-72
2022/10/18 07:16:09;;;;;;;12.03;6.83;;;;;;;15.41;42.76;101761.60;1805950;79;21203;-71
2022/10/18 07:18:39;;;;;;;12.27;6.87;;;;;;;15.52;42.47;101761.66;1806227;79;21154;-73
2022/10/18 07:21:09;;;;;;;11.90;6.93;;;;;;;15.64;42.58;101759.59;1804893;78;21047;-74
2022/10/18 07:23:39;;;;;;;10.47;6.80;;;;;;;15.76;42.89;101756.70;1805631;79;21183;-72
2022/10/18 07:26:25;;;;;;;11.70;6.53;;;;;;;15.90;42.37;101760.01;1805020;79;21252;-72
2022/10/18 07:28:59;;;;;;;9.17;6.27;;;;;;;16.03;42.27;101759.26;1805209;79;21318;-72
2022/10/18 07:31:25;;;;;;;10.50;6.37;;;;;;;16.29;41.67;101749.37;1733874;82;21349;-73
2022/10/18 07:33:53;;;;;;;10.97;6.20;;;;;;;16.29;41.67;101749.37;1841129;77;21273;-72
2022/10/18 07:36:23;;;;;;;11.23;6.80;;;;;;;16.37;41.39;101749.64;1849313;77;21248;-72
2022/10/18 07:38:53;;;;;;;9.40;6.50;;;;;;;16.56;40.67;101735.66;1849787;77;21482;-73
2022/10/18 07:41:20;;;;;;;12.90;6.20;;;;;;;16.56;40.67;101735.66;1849575;77;21462;-73
2022/10/18 07:43:49;;;;;;;8.33;5.80;;;;;;;16.67;40.32;101737.81;1849634;77;21334;-73
2022/10/18 07:46:16;;;;;;;11.03;6.33;;;;;;;16.76;40.49;101729.49;1849201;77;21409;-74
2022/10/18 07:48:43;;;;;;;11.43;5.90;;;;;;;16.87;40.22;101725.16;1849392;77;21466;-72
2022/10/18 07:51:10;;;;;;;10.23;6.03;;;;;;;17.00;39.90;101722.45;1847769;77;22380;-73
2022/10/18 07:53:36;;;;;;;8.97;6.10;;;;;;;17.13;40.06;101719.74;1849043;77;21649;-72
2022/10/18 07:56:14;;;;;;;8.37;5.47;;;;;;;17.25;39.65;101722.16;1848891;77;21473;-74
2022/10/18 07:58:38;;;;;;;11.03;5.90;;;;;;;17.36;39.05;101719.70;1848544;77;21792;-73
2022/10/18 08:01:07;;;;;;;10.17;5.53;;;;;;;17.47;39.12;101715.91;1848818;77;21684;-74
2022/10/18 08:03:35;;;;;;;12.17;6.03;;;;;;;17.61;38.72;101708.56;1848799;77;21620;-73
2022/10/18 08:06:01;;;;;;;10.70;5.80;;;;;;;17.76;38.67;101707.13;1848265;77;21653;-71
2022/10/18 08:08:29;;;;;;;9.10;6.03;;;;;;;17.89;38.43;101709.27;1849268;77;21644;-73
2022/10/18 08:11:02;;;;;;;7.67;5.43;;;;;;;18.02;38.39;101705.95;1848720;77;21650;-73
2022/10/18 08:13:30;;;;;;;8.57;5.33;;;;;;;18.19;38.30;101703.42;1820629;77;21590;-73
2022/10/18 08:16:02;;;;;;;8.80;5.40;;;;;;;18.35;37.96;101705.48;1848873;77;21602;-71
2022/10/18 08:18:30;;;;;;;8.23;4.87;;;;;;;18.47;36.60;101693.22;1848882;77;21591;-72
2022/10/18 08:21:00;;;;;;;9.23;4.97;;;;;;;18.66;35.04;101693.35;1840380;76;21066;-73
2022/10/18 08:23:28;;;;;;;7.70;4.67;;;;;;;18.66;35.04;101693.35;1824023;78;21462;-73
2022/10/18 08:25:55;;;;;;;8.17;4.30;;;;;;;18.79;35.27;101691.09;1742425;82;21719;-72
2022/10/18 08:28:21;;;;;;;7.17;4.87;;;;;;;18.92;34.44;101680.95;1749237;82;21013;-72
2022/10/18 08:30:47;;;;;;;8.13;4.97;;;;;;;19.01;33.74;101672.47;1815370;78;20992;-72
2022/10/18 08:33:14;;;;;;;5.77;4.13;;;;;;;19.12;34.21;101671.30;1815724;79;21038;-73
2022/10/18 08:35:41;;;;;;;6.20;4.20;;;;;;;19.26;33.76;101665.98;1815448;79;20952;-73
2022/10/18 08:38:10;;;;;;;7.20;4.43;;;;;;;19.35;32.66;101664.27;1815840;79;20991;-71
2022/10/18 08:40:38;;;;;;;8.10;4.97;;;;;;;19.44;33.21;101660.34;1824172;77;21036;-72
2022/10/18 08:43:43;;;;;;;7.43;4.73;;;;;;;19.51;32.91;101655.38;1745255;81;20957;-72
2022/10/18 08:46:11;;;;;;;6.93;4.37;;;;;;;19.64;33.65;101663.38;1772100;80;21326;-72
2022/10/18 08:48:44;;;;;;;9.87;5.20;;;;;;;19.78;33.05;101655.36;1847250;77;20976;-73
2022/10/18 09:10:24;;;;;;;6.07;3.80;;;;;;;20.94;32.44;101619.84;1765020;80;22252;-71
2022/10/18 09:13:21;;;;;;;7.03;4.63;;;;;;;21.02;31.96;101624.00;1790619;80;21827;-72
2022/10/18 09:15:53;;;;;;;6.27;4.13;;;;;;;21.12;31.70;101618.12;1771053;80;21149;-72
2022/10/18 09:18:56;;;;;;;6.93;4.53;;;;;;;21.17;31.68;101617.48;1789538;80;21524;-72
2022/10/18 09:21:30;;;;;;;7.80;4.40;;;;;;;21.26;31.69;101614.88;1777577;80;21114;-71
2022/10/18 09:24:11;;;;;;;6.30;4.33;;;;;;;21.40;31.53;101599.93;1790592;80;21445;-72
2022/10/18 09:26:48;;;;;;;6.73;4.43;;;;;;;21.49;31.56;101587.23;1790844;80;21543;-72
2022/10/18 09:29:38;;;;;;;9.87;5.00;;;;;;;21.60;30.96;101589.97;1790205;80;21929;-72
2022/10/18 09:32:42;;;;;;;6.93;4.17;;;;;;;21.66;30.65;101587.39;1780578;80;20879;-72
2022/10/18 09:35:19;;;;;;;7.00;4.47;;;;;;;21.71;31.22;101577.73;1759468;81;21632;-71
2022/10/18 09:37:45;;;;;;;7.33;4.47;;;;;;;21.86;31.61;101575.79;1757782;81;21072;-72
2022/10/18 09:40:20;;;;;;;7.67;4.07;;;;;;;21.96;31.52;101565.46;1759478;81;21007;-72
2022/10/18 09:42:56;;;;;;;6.90;4.53;;;;;;;22.06;31.36;101567.69;1759586;81;21153;-71
2022/10/18 09:45:38;;;;;;;7.03;4.47;;;;;;;22.17;31.15;101554.09;1758047;81;21484;-71
2022/10/18 09:48:22;;;;;;;7.03;4.17;;;;;;;22.28;31.14;101557.36;1759586;81;21026;-71
2022/10/18 09:51:06;;;;;;;7.70;4.30;;;;;;;22.40;31.09;101552.14;1759714;81;21077;-72
2022/10/18 09:53:44;;;;;;;8.93;4.17;;;;;;;22.52;30.99;101544.77;1772212;79;21500;-71
2022/10/18 09:56:17;;;;;;;9.43;4.93;;;;;;;22.63;30.31;101537.91;1759669;81;21227;-71
2022/10/18 09:58:47;;;;;;;7.73;4.83;;;;;;;22.65;30.25;101539.21;1759417;81;20978;-70
2022/10/18 10:01:24;;;;;;;;;;;;;;;22.68;30.19;101533.70;1769762;80;20919;-71
2022/10/18 10:03:50;;;;;;;7.93;4.30;;;;;;;22.66;30.08;101527.19;1789558;80;20427;-72
2022/10/18 10:06:24;;;;;;;9.07;5.80;;;;;;;22.70;29.94;101519.19;1778269;80;20974;-71
2022/10/18 10:09:02;;;;;;;7.97;4.50;;;;;;;22.72;30.20;101519.69;1758896;81;21867;-72
2022/10/18 10:11:39;;;;;;;8.40;4.43;;;;;;;22.73;29.67;101511.75;1713024;81;20955;-71
2022/10/18 10:14:24;;;;;;;8.07;4.80;;;;;;;22.71;29.80;101512.09;1759404;81;21537;-71
2022/10/18 10:16:56;;;;;;;12.80;4.77;;;;;;;22.74;29.90;101499.77;1759378;81;21579;-72
2022/10/18 10:19:37;;;;;;;7.60;4.77;;;;;;;22.83;29.91;101504.65;1758934;81;20954;-71
2022/10/18 10:22:11;;;;;;;8.77;4.70;;;;;;;22.91;29.49;101499.80;1710120;81;21037;-72
2022/10/18 10:24:44;;;;;;;7.70;4.70;;;;;;;22.96;29.73;101494.78;1733008;81;21013;-71
2022/10/18 10:27:25;;;;;;;6.57;4.03;;;;;;;22.97;29.61;101489.59;1758788;81;21017;-71
2022/10/18 10:29:55;;;;;;;10.35;5.22;;;;;;;22.97;29.44;101485.50;1751335;81;20974;-71
2022/10/18 10:32:25;;;;;;;7.73;4.50;;;;;;;22.99;29.55;101485.97;1758803;81;21481;-73
2022/10/18 10:34:52;;;;;;;8.33;4.97;;;;;;;23.04;29.46;101479.02;1758708;81;21103;-71
2022/10/18 10:37:35;;;;;;;11.20;5.27;;;;;;;23.05;29.89;101475.16;1759127;81;21053;-72
2022/10/18 10:40:17;;;;;;;7.23;4.60;;;;;;;23.12;29.98;101474.69;1768020;80;20955;-73
2022/10/18 10:43:16;;;;;;;7.15;4.65;;;;;;;23.18;29.79;101471.48;1767636;80;21097;-72
2022/10/18 10:46:06;;;;;;;7.73;4.80;;;;;;;23.20;29.34;101464.91;1790189;80;21014;-71
2022/10/18 10:48:53;;;;;;;7.17;5.00;;;;;;;23.17;29.19;101458.98;1789890;80;21148;-72
2022/10/18 10:51:36;;;;;;;8.33;5.23;;;;;;;23.15;29.18;101450.32;1776488;80;20986;-70
2022/10/18 10:54:14;;;;;;;6.40;4.87;;;;;;;23.18;29.18;101455.70;1757798;79;20963;-72
2022/10/18 10:57:11;;;;;;;7.77;4.50;;;;;;;23.22;29.19;101453.93;1763465;80;21074;-71
2022/10/18 10:59:50;;;;;;;6.30;4.37;;;;;;;23.23;29.04;101453.36;1789746;80;21054;-72
2022/10/18 11:02:22;;;;;;;7.97;4.73;;;;;;;23.23;28.80;101445.19;1789482;80;22035;-71
2022/10/18 11:04:51;;;;;;;7.47;4.30;;;;;;;23.25;28.80;101441.59;1790027;80;21486;-72
2022/10/18 11:07:39;;;;;;;8.00;4.57;;;;;;;23.29;28.67;101433.00;1790062;80;21029;-71
2022/10/18 11:10:15;;;;;;;7.33;4.40;;;;;;;23.32;28.51;101426.91;1790097;80;21053;-71
2022/10/18 11:13:01;;;;;;;7.77;4.53;;;;;;;23.38;29.05;101423.70;1789827;80;20915;-71
2022/10/18 11:15:37;;;;;;;7.97;4.50;;;;;;;23.47;28.60;101418.81;1788966;80;21490;-70
2022/10/18 11:18:27;;;;;;;8.07;4.70;;;;;;;23.51;27.96;101417.83;1789943;80;21512;-72
2022/10/18 11:21:12;;;;;;;7.15;4.50;;;;;;;23.51;28.04;101412.94;1790090;80;20980;-70
2022/10/18 11:23:41;;;;;;;8.63;4.40;;;;;;;23.52;28.28;101406.36;1789888;80;20990;-72
2022/10/18 11:26:22;;;;;;;6.50;4.23;;;;;;;23.56;28.18;101401.84;1790422;80;21556;-72
2022/10/18 11:29:14;;;;;;;7.45;4.45;;;;;;;23.59;28.55;101399.30;1789898;80;21528;-72
2022/10/18 11:31:56;;;;;;;5.80;4.00;;;;;;;23.64;28.09;101392.30;1788802;80;20943;-71
2022/10/18 11:34:43;;;;;;;7.53;4.35;;;;;;;23.70;27.96;101379.89;1789921;80;20963;-72
2022/10/18 11:37:39;;;;;;;6.67;4.10;;;;;;;23.73;27.77;101380.60;1790111;80;20991;-72
2022/10/18 11:40:28;;;;;;;7.03;4.20;;;;;;;23.77;27.50;101380.17;1790024;80;20971;-72
2022/10/18 11:43:17;;;;;;;8.33;4.10;;;;;;;23.78;27.58;101372.22;1789965;80;21520;-71
2022/10/18 11:46:04;;;;;;;5.93;3.90;;;;;;;23.79;27.93;101368.36;1789793;80;21449;-71
2022/10/18 11:48:51;;;;;;;7.77;4.23;;;;;;;23.79;27.04;101369.19;1788468;80;21505;-72
2022/10/18 11:52:09;;;;;;;6.50;4.30;;;;;;;23.82;27.76;101360.35;1759385;80;21011;-72
2022/10/18 11:55:17;;;;;;;8.80;4.13;;;;;;;23.88;27.29;101358.22;1786640;79;21012;-71
2022/10/18 11:58:04;;;;;;;9.50;4.07;;;;;;;23.92;27.21;101352.34;1789872;80;22249;-72
2022/10/18 12:00:48;;;;;;;6.97;3.77;;;;;;;23.93;26.57;101355.32;1768350;79;21030;-69
2022/10/18 12:03:28;;;;;;;9.23;4.10;;;;;;;23.94;26.42;101343.84;1808717;79;21046;-73
2022/10/18 12:05:57;;;;;;;;;;;;;;;23.92;26.63;101341.42;1797097;79;21160;-71
2022/10/18 12:08:35;;;;;;;6.10;3.67;;;;;;;23.92;26.31;101337.33;1789651;80;20609;-71
2022/10/18 12:11:15;;;;;;;7.10;3.50;;;;;;;23.95;26.29;101330.42;1790414;80;21110;-72
2022/10/18 12:13:58;;;;;;;8.13;4.20;;;;;;;23.98;26.50;101329.20;1789569;80;21046;-72
2022/10/18 12:16:29;;;;;;;6.95;3.77;;;;;;;24.03;25.96;101315.37;1790301;80;21070;-71
2022/10/18 12:19:06;;;;;;;6.47;3.90;;;;;;;24.04;26.02;101314.24;1789596;80;21079;-72